Terminal Aerodrome Forecast
Issued by NWS

Home | Current Version | Previous Version | Text Only | Print | Product List | Glossary On
Versions: 1 2 3 4 5 6 7 8 9 10 11 12 13 14 15 16 17 18 19 20 21 22 23 24 25 26 27 28 29 30 31 32 33
759
FTUS43 KDVN 080349 AAB
TAFCID
TAF AMD
KCID 080349Z 0804/0824 26013KT 5SM -SN BR VCSH BKN015 BKN025
      TEMPO 0804/0805 5SM -SN BKN020 OVC030
     FM080500 29017G27KT P6SM VCSH BKN025 OVC035
      TEMPO 0805/0809 4SM -SN BR BKN015 OVC030
     FM080900 31020G30KT 5SM -SHSN SCT009 OVC020
     FM081500 32022G32KT 3SM -SHSN OVC015=

USA.gov is the U.S. government's official web portal to all federal, state and local government web resources and services.